createdAt,value
2019-06-15T00:00:21.941Z,6.28
2019-06-15T00:00:58.670Z,6.05
2019-06-15T00:01:34.391Z,5.87
2019-06-15T00:02:09.741Z,6.03
2019-06-15T00:02:45.428Z,5.67
2019-06-15T00:03:21.368Z,6.55
2019-06-15T00:03:56.406Z,5.97
2019-06-15T00:04:32.331Z,6.53
2019-06-15T00:05:08.103Z,6.03
2019-06-15T00:05:43.179Z,6.67
2019-06-15T00:06:18.824Z,6.62
2019-06-15T00:06:54.634Z,6.55
2019-06-15T00:07:29.695Z,6.30
2019-06-15T00:08:05.587Z,7.05
2019-06-15T00:08:41.223Z,7.03
2019-06-15T00:09:16.261Z,6.65
2019-06-15T00:09:52.306Z,6.78
2019-06-15T00:10:28.898Z,6.60
2019-06-15T00:11:04.018Z,7.33
2019-06-15T00:11:39.656Z,6.62
2019-06-15T00:12:15.288Z,6.60
2019-06-15T00:12:50.342Z,6.40
2019-06-15T00:13:26.721Z,6.92
2019-06-15T00:14:03.888Z,7.08
2019-06-15T00:14:38.930Z,6.72
2019-06-15T00:15:14.627Z,6.90
2019-06-15T00:15:50.571Z,6.72
2019-06-15T00:16:25.695Z,6.47
2019-06-15T00:17:01.343Z,6.62
2019-06-15T00:17:36.971Z,6.55
2019-06-15T00:18:12.566Z,6.83
2019-06-15T00:18:48.209Z,6.60
2019-06-15T00:19:23.826Z,6.33
2019-06-15T00:19:58.955Z,6.40
2019-06-15T00:20:34.582Z,6.00
2019-06-15T00:21:10.699Z,6.17
2019-06-15T00:21:46.124Z,6.33
2019-06-15T00:22:22.069Z,5.90
2019-06-15T00:22:57.694Z,6.50
2019-06-15T00:23:33.332Z,6.20
2019-06-15T00:24:11.739Z,6.33
2019-06-15T00:24:47.375Z,6.60
2019-06-15T00:25:22.685Z,5.90
2019-06-15T00:25:58.436Z,6.05
2019-06-15T00:26:34.062Z,5.62
2019-06-15T00:27:09.131Z,5.80
2019-06-15T00:27:45.229Z,5.72
2019-06-15T00:28:21.491Z,5.67
2019-06-15T00:28:56.929Z,5.70
2019-06-15T00:29:32.799Z,5.50
2019-06-15T00:30:08.456Z,5.97
2019-06-15T00:30:43.853Z,5.53
2019-06-15T00:31:19.490Z,5.78
2019-06-15T00:31:55.118Z,5.80
2019-06-15T00:32:30.242Z,5.58
2019-06-15T00:33:05.878Z,5.40
2019-06-15T00:33:41.501Z,6.20
2019-06-15T00:34:16.578Z,6.00
2019-06-15T00:34:52.200Z,6.05
2019-06-15T00:35:28.497Z,5.87
2019-06-15T00:36:03.723Z,8.00
2019-06-15T00:36:39.365Z,5.95
2019-06-15T00:37:15.301Z,6.62
2019-06-15T00:37:50.363Z,10.35
2019-06-15T00:38:26.256Z,6.87
2019-06-15T00:39:01.896Z,7.37
2019-06-15T00:39:38.555Z,7.17
2019-06-15T00:40:14.599Z,8.10
2019-06-15T00:40:50.490Z,6.95
2019-06-15T00:41:25.795Z,9.15
2019-06-15T00:42:01.747Z,8.30
2019-06-15T00:42:37.442Z,7.80
2019-06-15T00:43:12.506Z,8.00
2019-06-15T00:43:48.143Z,8.28
2019-06-15T00:44:23.792Z,9.25
2019-06-15T00:44:59.412Z,8.98
2019-06-15T00:45:35.036Z,9.20
2019-06-15T00:46:10.962Z,9.90
2019-06-15T00:46:46.427Z,10.70
2019-06-15T00:47:22.048Z,10.30
2019-06-15T00:47:57.679Z,11.08
2019-06-15T00:48:33.442Z,11.38
2019-06-15T00:49:09.076Z,10.75
2019-06-15T00:49:44.772Z,10.63
2019-06-15T00:50:19.814Z,10.20
2019-06-15T00:50:55.443Z,9.95
2019-06-15T00:51:31.371Z,10.13
2019-06-15T00:52:06.431Z,9.78
2019-06-15T00:52:42.047Z,10.03
2019-06-15T00:53:17.697Z,9.40
2019-06-15T00:53:52.734Z,11.05
2019-06-15T00:54:28.371Z,10.25
2019-06-15T00:55:04.070Z,9.50
2019-06-15T00:55:39.117Z,8.80
2019-06-15T00:56:14.741Z,18.02
2019-06-15T00:56:50.375Z,9.50
2019-06-15T00:57:25.496Z,10.53
2019-06-15T00:58:01.491Z,15.63
2019-06-15T00:58:37.170Z,18.77
2019-06-15T00:59:12.247Z,10.20
2019-06-15T00:59:48.584Z,14.00
2019-06-15T01:00:24.303Z,42.23
2019-06-15T01:00:59.785Z,13.28
2019-06-15T01:01:35.826Z,19.30
2019-06-15T01:02:11.487Z,11.35
2019-06-15T01:02:46.570Z,12.60
2019-06-15T01:03:22.257Z,12.70
2019-06-15T01:03:57.896Z,13.65
2019-06-15T01:04:35.038Z,37.73
2019-06-15T01:05:10.723Z,12.63
2019-06-15T01:05:46.379Z,11.48
2019-06-15T01:06:21.444Z,14.95
2019-06-15T01:07:00.182Z,10.05
2019-06-15T01:07:35.886Z,9.65
2019-06-15T01:08:10.940Z,12.35
2019-06-15T01:08:46.574Z,17.23
2019-06-15T01:09:22.286Z,12.58
2019-06-15T01:09:57.742Z,35.98
2019-06-15T01:10:34.175Z,13.60
2019-06-15T01:11:09.885Z,37.38
2019-06-15T01:11:44.962Z,47.38
2019-06-15T01:12:20.876Z,112.00
2019-06-15T01:12:56.505Z,13.18
2019-06-15T01:13:31.888Z,12.90
2019-06-15T01:14:07.642Z,13.55
2019-06-15T01:14:43.612Z,23.75
2019-06-15T01:15:18.967Z,12.07
2019-06-15T01:15:54.611Z,16.77
2019-06-15T01:16:30.353Z,11.45
2019-06-15T01:17:05.385Z,10.28
2019-06-15T01:17:41.744Z,24.98
2019-06-15T01:18:17.362Z,10.05
2019-06-15T01:18:53.504Z,16.10
2019-06-15T01:19:29.170Z,14.05
2019-06-15T01:20:05.221Z,14.25
2019-06-15T01:20:40.612Z,10.95
2019-06-15T01:21:16.246Z,15.00
2019-06-15T01:21:51.878Z,11.70
2019-06-15T01:22:27.235Z,10.65
2019-06-15T01:23:03.475Z,22.82
2019-06-15T01:23:39.154Z,12.85
2019-06-15T01:24:14.523Z,13.83
2019-06-15T01:25:02.476Z,11.00
2019-06-15T01:25:27.843Z,13.65
2019-06-15T01:26:02.886Z,15.23
2019-06-15T01:26:38.510Z,11.03
2019-06-15T01:27:14.147Z,11.43
2019-06-15T01:27:49.175Z,11.30
2019-06-15T01:28:24.809Z,10.40
2019-06-15T01:29:00.447Z,10.80
2019-06-15T01:29:35.602Z,11.68
2019-06-15T01:30:11.376Z,10.75
2019-06-15T01:30:47.471Z,11.28
2019-06-15T01:31:23.200Z,11.83
2019-06-15T01:31:59.814Z,12.30
2019-06-15T01:32:36.275Z,11.45
2019-06-15T01:33:11.328Z,11.55
2019-06-15T01:33:47.320Z,11.20
2019-06-15T01:34:22.969Z,11.55
2019-06-15T01:34:58.330Z,11.18
2019-06-15T01:35:34.350Z,15.08
2019-06-15T01:36:10.423Z,11.88
2019-06-15T01:36:45.780Z,13.28
2019-06-15T01:37:21.459Z,10.78
2019-06-15T01:37:57.396Z,10.93
2019-06-15T01:38:32.586Z,10.30
2019-06-15T01:39:08.258Z,10.95
2019-06-15T01:39:43.955Z,11.25
2019-06-15T01:40:19.035Z,11.00
2019-06-15T01:40:55.287Z,11.22
2019-06-15T01:41:30.952Z,11.00
2019-06-15T01:42:05.992Z,10.08
2019-06-15T01:42:41.872Z,10.53
2019-06-15T01:43:17.923Z,12.50
2019-06-15T01:43:52.991Z,10.70
2019-06-15T01:44:28.693Z,10.70
2019-06-15T01:45:04.351Z,11.10
2019-06-15T01:45:40.093Z,10.90
2019-06-15T01:46:16.163Z,10.88
2019-06-15T01:46:51.829Z,11.28
2019-06-15T01:47:27.197Z,10.15
2019-06-15T01:48:03.816Z,10.88
2019-06-15T01:48:39.767Z,10.20
2019-06-15T01:49:14.835Z,9.78
2019-06-15T01:49:50.454Z,9.88
2019-06-15T01:50:26.163Z,10.55
2019-06-15T01:51:01.514Z,9.23
2019-06-15T01:51:37.269Z,10.20
2019-06-15T01:52:12.927Z,9.20
2019-06-15T01:52:47.999Z,9.65
2019-06-15T01:53:23.630Z,9.60
2019-06-15T01:53:59.494Z,10.08
2019-06-15T01:54:34.589Z,9.40
2019-06-15T01:55:20.389Z,9.50
2019-06-15T01:55:47.668Z,10.10
2019-06-15T01:56:22.723Z,9.53
2019-06-15T01:56:58.876Z,9.65
2019-06-15T01:57:34.946Z,10.23
2019-06-15T01:58:10.266Z,10.10
2019-06-15T01:58:46.148Z,9.95
2019-06-15T01:59:21.842Z,11.18
2019-06-15T01:59:56.893Z,9.63
2019-06-15T02:00:32.803Z,9.63
2019-06-15T02:01:08.439Z,10.40
2019-06-15T02:01:43.475Z,9.78
2019-06-15T02:02:19.125Z,9.63
2019-06-15T02:02:54.750Z,10.05
2019-06-15T02:03:29.812Z,9.85
2019-06-15T02:04:05.615Z,9.60
2019-06-15T02:04:41.320Z,9.28
2019-06-15T02:05:16.359Z,9.58
2019-06-15T02:05:52.086Z,9.13
2019-06-15T02:06:27.770Z,9.58
2019-06-15T02:07:03.210Z,9.40
2019-06-15T02:07:40.072Z,9.63
2019-06-15T02:08:16.048Z,8.83
2019-06-15T02:08:51.088Z,9.30
2019-06-15T02:09:27.085Z,9.00
2019-06-15T02:10:02.730Z,9.25
2019-06-15T02:10:37.778Z,9.15
2019-06-15T02:11:13.705Z,9.40
2019-06-15T02:11:49.315Z,9.50
2019-06-15T02:12:25.349Z,9.83
2019-06-15T02:13:00.963Z,9.20
2019-06-15T02:13:36.582Z,9.28
2019-06-15T02:14:11.995Z,9.65
2019-06-15T02:14:47.939Z,9.83
2019-06-15T02:15:23.873Z,9.40
2019-06-15T02:16:01.975Z,9.40
2019-06-15T02:16:36.235Z,9.20
2019-06-15T02:17:11.894Z,9.50
2019-06-15T02:17:47.255Z,9.50
2019-06-15T02:18:22.883Z,9.80
2019-06-15T02:18:58.527Z,9.03
2019-06-15T02:19:33.587Z,8.80
2019-06-15T02:20:09.399Z,10.08
2019-06-15T02:20:45.018Z,9.43
2019-06-15T02:21:20.058Z,9.45
2019-06-15T02:21:55.692Z,8.90
2019-06-15T02:22:31.627Z,8.75
2019-06-15T02:23:06.678Z,8.88
2019-06-15T02:23:42.676Z,9.10
2019-06-15T02:24:18.341Z,9.35
2019-06-15T02:24:53.438Z,9.10
2019-06-15T02:25:36.186Z,9.60
2019-06-15T02:26:09.031Z,9.18
2019-06-15T02:26:45.164Z,9.53
2019-06-15T02:27:20.840Z,10.08
2019-06-15T02:27:56.745Z,9.45
2019-06-15T02:28:32.656Z,9.13
2019-06-15T02:29:08.326Z,9.25
2019-06-15T02:29:44.567Z,9.70
2019-06-15T02:30:26.687Z,9.58
2019-06-15T02:31:03.419Z,9.83
2019-06-15T02:31:40.592Z,8.88
2019-06-15T02:32:15.737Z,9.30
2019-06-15T02:32:51.367Z,8.88
2019-06-15T02:33:27.406Z,9.33
2019-06-15T02:34:02.481Z,9.23
2019-06-15T02:34:38.481Z,9.58
2019-06-15T02:35:14.464Z,9.58
2019-06-15T02:35:49.543Z,9.60
2019-06-15T02:36:25.456Z,9.78
2019-06-15T02:37:01.093Z,9.78
2019-06-15T02:37:36.456Z,9.70
2019-06-15T02:38:12.086Z,10.03
2019-06-15T02:38:47.750Z,9.63
2019-06-15T02:39:23.249Z,9.20
2019-06-15T02:39:59.176Z,8.98
2019-06-15T02:40:34.800Z,8.53
2019-06-15T02:41:09.835Z,9.73
2019-06-15T02:41:45.476Z,8.90
2019-06-15T02:42:21.478Z,9.30
2019-06-15T02:42:56.874Z,8.95
2019-06-15T02:43:32.879Z,9.40
2019-06-15T02:44:08.881Z,9.68
2019-06-15T02:44:43.936Z,8.90
2019-06-15T02:45:19.578Z,9.73
2019-06-15T02:45:55.219Z,9.95
2019-06-15T02:46:30.716Z,9.28
2019-06-15T02:47:06.703Z,9.68
2019-06-15T02:47:42.661Z,9.15
2019-06-15T02:48:17.774Z,9.05
2019-06-15T02:48:53.402Z,9.13
2019-06-15T02:49:30.266Z,9.03
2019-06-15T02:50:05.648Z,9.98
2019-06-15T02:50:41.278Z,9.40
2019-06-15T02:51:16.897Z,9.73
2019-06-15T02:51:51.997Z,9.70
2019-06-15T02:52:27.672Z,9.60
2019-06-15T02:53:03.303Z,9.63
2019-06-15T02:53:38.398Z,9.20
2019-06-15T02:54:14.435Z,9.38
2019-06-15T02:54:50.070Z,9.80
2019-06-15T02:55:25.475Z,9.80
2019-06-15T02:56:01.097Z,9.75
2019-06-15T02:56:36.724Z,9.35
2019-06-15T02:57:12.136Z,9.63
2019-06-15T02:57:47.775Z,10.10
2019-06-15T02:58:24.382Z,8.98
2019-06-15T02:58:59.657Z,10.10
2019-06-15T02:59:35.275Z,9.58
2019-06-15T03:00:10.907Z,10.03
2019-06-15T03:00:53.342Z,10.32
2019-06-15T03:01:29.002Z,10.40
2019-06-15T03:02:04.631Z,10.03
2019-06-15T03:02:40.322Z,9.28
2019-06-15T03:03:16.198Z,10.55
2019-06-15T03:03:51.962Z,9.60
2019-06-15T03:04:27.315Z,10.58
2019-06-15T03:05:02.937Z,10.18
2019-06-15T03:05:38.839Z,9.38
2019-06-15T03:06:13.880Z,10.15
2019-06-15T03:06:50.175Z,9.48
2019-06-15T03:07:26.174Z,9.95
2019-06-15T03:08:01.227Z,10.40
2019-06-15T03:08:36.860Z,10.45
2019-06-15T03:09:12.509Z,10.25
2019-06-15T03:09:47.804Z,9.88
2019-06-15T03:10:23.718Z,10.38
2019-06-15T03:10:59.348Z,10.05
2019-06-15T03:11:34.386Z,10.43
2019-06-15T03:12:11.026Z,10.40
2019-06-15T03:12:46.660Z,10.45
2019-06-15T03:13:21.785Z,10.88
2019-06-15T03:13:57.829Z,10.43
2019-06-15T03:14:33.893Z,11.00
2019-06-15T03:15:09.010Z,10.43
2019-06-15T03:15:44.690Z,9.85
2019-06-15T03:16:20.319Z,10.72
2019-06-15T03:16:55.443Z,9.95
2019-06-15T03:17:32.485Z,10.23
2019-06-15T03:18:08.357Z,10.38
2019-06-15T03:18:43.668Z,10.53
2019-06-15T03:19:19.668Z,10.58
2019-06-15T03:19:55.295Z,10.45
2019-06-15T03:20:30.366Z,10.25
2019-06-15T03:21:06.066Z,10.18
2019-06-15T03:21:43.280Z,10.23
2019-06-15T03:22:18.366Z,9.90
2019-06-15T03:22:54.028Z,10.58
2019-06-15T03:23:30.279Z,10.30
2019-06-15T03:24:05.531Z,9.48
2019-06-15T03:24:41.334Z,10.32
2019-06-15T03:25:16.956Z,10.32
2019-06-15T03:26:04.683Z,10.25
2019-06-15T03:26:29.367Z,10.63
2019-06-15T03:27:05.175Z,10.40
2019-06-15T03:27:40.482Z,9.43
2019-06-15T03:28:16.411Z,10.53
2019-06-15T03:28:52.063Z,10.00
2019-06-15T03:29:27.114Z,10.32
2019-06-15T03:30:02.788Z,9.50
2019-06-15T03:30:38.568Z,9.78
2019-06-15T03:31:14.004Z,10.58
2019-06-15T03:31:49.636Z,10.55
2019-06-15T03:32:25.267Z,10.20
2019-06-15T03:33:00.320Z,10.82
2019-06-15T03:33:35.955Z,9.80
2019-06-15T03:34:11.604Z,10.20
2019-06-15T03:34:46.658Z,10.50
2019-06-15T03:35:22.291Z,9.68
2019-06-15T03:36:10.631Z,10.80
2019-06-15T03:36:45.727Z,10.48
2019-06-15T03:37:21.378Z,10.75
2019-06-15T03:37:57.027Z,10.20
2019-06-15T03:38:32.171Z,9.58
2019-06-15T03:39:08.114Z,10.10
2019-06-15T03:39:43.766Z,10.75
2019-06-15T03:40:18.798Z,10.23
2019-06-15T03:40:54.440Z,10.48
2019-06-15T03:41:30.108Z,10.53
2019-06-15T03:42:05.586Z,10.05
2019-06-15T03:42:41.211Z,10.23
2019-06-15T03:43:17.131Z,10.95
2019-06-15T03:43:52.503Z,10.35
2019-06-15T03:44:28.135Z,10.05
2019-06-15T03:45:04.130Z,10.10
2019-06-15T03:45:39.267Z,10.78
2019-06-15T03:46:14.981Z,10.72
2019-06-15T03:46:50.616Z,10.25
2019-06-15T03:47:25.749Z,10.32
2019-06-15T03:48:01.403Z,11.33
2019-06-15T03:48:37.045Z,11.45
2019-06-15T03:49:12.090Z,10.72
2019-06-15T03:49:48.157Z,10.28
2019-06-15T03:50:24.415Z,10.78
2019-06-15T03:50:59.446Z,10.43
2019-06-15T03:51:36.291Z,11.00
2019-06-15T03:52:11.931Z,10.05
2019-06-15T03:52:46.981Z,10.28
2019-06-15T03:53:22.622Z,10.60
2019-06-15T03:53:59.198Z,10.70
2019-06-15T03:54:34.363Z,10.20
2019-06-15T03:55:10.106Z,10.88
2019-06-15T03:55:45.738Z,10.15
2019-06-15T03:56:22.208Z,10.23
2019-06-15T03:56:58.200Z,11.12
2019-06-15T03:57:33.963Z,10.78
2019-06-15T03:58:09.000Z,10.38
2019-06-15T03:58:44.618Z,10.48
2019-06-15T03:59:20.263Z,10.50
2019-06-15T03:59:55.662Z,11.08
2019-06-15T04:01:16.338Z,11.05
2019-06-15T04:01:51.482Z,11.08
2019-06-15T04:02:27.166Z,10.25
2019-06-15T04:03:02.811Z,11.05
2019-06-15T04:03:37.886Z,10.85
2019-06-15T04:04:14.128Z,10.60
2019-06-15T04:04:52.317Z,10.85
2019-06-15T04:05:26.535Z,11.33
2019-06-15T04:06:02.171Z,10.43
2019-06-15T04:06:37.880Z,11.57
2019-06-15T04:07:13.527Z,11.80
2019-06-15T04:07:49.156Z,11.83
2019-06-15T04:08:24.810Z,11.78
2019-06-15T04:08:59.848Z,11.08
2019-06-15T04:09:35.471Z,11.15
2019-06-15T04:10:11.395Z,11.85
2019-06-15T04:10:46.443Z,10.82
2019-06-15T04:11:22.064Z,11.97
2019-06-15T04:11:57.720Z,11.80
2019-06-15T04:12:32.839Z,11.43
2019-06-15T04:13:08.483Z,12.10
2019-06-15T04:13:44.126Z,12.65
2019-06-15T04:14:19.183Z,11.88
2019-06-15T04:14:54.816Z,11.73
2019-06-15T04:15:30.637Z,11.20
2019-06-15T04:16:06.755Z,12.30
2019-06-15T04:16:43.075Z,12.40
2019-06-15T04:17:18.706Z,12.05
2019-06-15T04:17:54.064Z,12.30
2019-06-15T04:18:30.396Z,12.28
2019-06-15T04:19:06.352Z,11.70
2019-06-15T04:19:41.470Z,11.63
2019-06-15T04:20:17.135Z,12.20
2019-06-15T04:20:52.780Z,12.20
2019-06-15T04:21:27.836Z,12.82
2019-06-15T04:22:03.499Z,12.20
2019-06-15T04:22:39.359Z,13.03
2019-06-15T04:23:14.490Z,12.58
2019-06-15T04:23:50.130Z,12.78
2019-06-15T04:24:25.787Z,12.78
2019-06-15T04:25:01.158Z,12.35
2019-06-15T04:25:36.818Z,12.82
2019-06-15T04:26:12.837Z,11.80
2019-06-15T04:26:47.889Z,12.45
2019-06-15T04:27:23.881Z,12.07
2019-06-15T04:28:00.534Z,12.03
2019-06-15T04:28:35.592Z,12.45
2019-06-15T04:29:11.205Z,12.40
2019-06-15T04:29:46.847Z,12.23
2019-06-15T04:30:21.911Z,11.12
2019-06-15T04:30:57.554Z,12.90
2019-06-15T04:31:33.182Z,11.85
2019-06-15T04:32:08.265Z,12.75
2019-06-15T04:32:43.894Z,11.80
2019-06-15T04:33:19.842Z,12.13
2019-06-15T04:33:54.894Z,11.93
2019-06-15T04:34:30.975Z,11.83
2019-06-15T04:35:06.664Z,11.80
2019-06-15T04:35:41.719Z,12.53
2019-06-15T04:36:17.342Z,12.07
2019-06-15T04:36:53.058Z,10.90
2019-06-15T04:37:28.100Z,12.00
2019-06-15T04:38:04.110Z,11.90
2019-06-15T04:38:39.823Z,10.98
2019-06-15T04:39:15.445Z,12.00
2019-06-15T04:39:51.435Z,12.00
2019-06-15T04:40:27.062Z,11.33
2019-06-15T04:41:02.118Z,11.83
2019-06-15T04:41:37.753Z,10.88
2019-06-15T04:42:13.446Z,11.00
2019-06-15T04:42:48.510Z,11.33
2019-06-15T04:43:24.818Z,11.50
2019-06-15T04:44:00.735Z,11.57
2019-06-15T04:44:35.778Z,11.73
2019-06-15T04:45:11.426Z,11.35
2019-06-15T04:45:47.060Z,10.95
2019-06-15T04:46:22.156Z,11.60
2019-06-15T04:46:57.790Z,11.93
2019-06-15T04:47:35.005Z,11.08
2019-06-15T04:48:10.295Z,11.03
2019-06-15T04:48:45.941Z,11.05
2019-06-15T04:49:21.609Z,10.72
2019-06-15T04:49:56.771Z,10.55
2019-06-15T04:50:32.469Z,10.53
2019-06-15T04:51:08.506Z,11.05
2019-06-15T04:51:43.561Z,11.10
2019-06-15T04:52:19.199Z,11.05
2019-06-15T04:52:54.895Z,11.25
2019-06-15T04:53:30.362Z,11.00
2019-06-15T04:54:06.011Z,10.85
2019-06-15T04:54:41.736Z,10.45
2019-06-15T04:55:16.806Z,10.45
2019-06-15T04:55:52.555Z,10.45
2019-06-15T04:56:28.187Z,10.88
2019-06-15T04:57:03.474Z,10.48
2019-06-15T04:57:39.130Z,10.78
2019-06-15T04:58:14.839Z,11.03
2019-06-15T04:58:50.148Z,10.90
2019-06-15T04:59:27.162Z,11.15
2019-06-15T05:00:02.833Z,11.20
2019-06-15T05:00:38.355Z,11.08
2019-06-15T05:01:14.515Z,11.43
2019-06-15T05:01:50.751Z,11.18
2019-06-15T05:02:27.429Z,11.38
2019-06-15T05:03:03.210Z,12.00
2019-06-15T05:03:38.866Z,12.07
2019-06-15T05:04:13.970Z,11.88
2019-06-15T05:04:49.603Z,11.57
2019-06-15T05:05:26.264Z,11.63
2019-06-15T05:06:01.307Z,12.55
2019-06-15T05:06:39.091Z,12.35
2019-06-15T05:07:17.634Z,12.88
2019-06-15T05:07:53.031Z,12.10
2019-06-15T05:08:28.983Z,12.85
2019-06-15T05:09:06.188Z,12.75
2019-06-15T05:09:41.235Z,12.85
2019-06-15T05:10:16.852Z,13.53
2019-06-15T05:10:56.318Z,13.43
2019-06-15T05:11:30.243Z,14.30
2019-06-15T05:12:06.189Z,14.10
2019-06-15T05:12:41.822Z,13.90
2019-06-15T05:13:16.888Z,13.22
2019-06-15T05:13:52.772Z,14.93
2019-06-15T05:14:28.976Z,13.98
2019-06-15T05:15:04.895Z,14.28
2019-06-15T05:15:40.604Z,14.40
2019-06-15T05:16:16.273Z,14.68
2019-06-15T05:16:51.341Z,13.88
2019-06-15T05:17:26.955Z,14.20
2019-06-15T05:18:02.990Z,15.55
2019-06-15T05:18:38.030Z,15.70
2019-06-15T05:19:13.685Z,15.43
2019-06-15T05:19:49.367Z,16.25
2019-06-15T05:20:24.471Z,16.17
2019-06-15T05:21:00.478Z,16.05
2019-06-15T05:21:36.418Z,16.32
2019-06-15T05:22:11.795Z,15.72
2019-06-15T05:22:47.873Z,16.48
2019-06-15T05:23:23.550Z,16.85
2019-06-15T05:23:58.606Z,17.32
2019-06-15T05:24:34.539Z,17.75
2019-06-15T05:25:10.214Z,17.27
2019-06-15T05:25:45.258Z,17.95
2019-06-15T05:26:20.878Z,17.00
2019-06-15T05:27:05.975Z,17.30
2019-06-15T05:27:33.430Z,17.12
2019-06-15T05:28:10.069Z,17.92
2019-06-15T05:28:45.762Z,18.25
2019-06-15T05:29:20.827Z,18.45
2019-06-15T05:29:56.711Z,18.82
2019-06-15T05:30:32.727Z,18.27
2019-06-15T05:31:07.791Z,19.17
2019-06-15T05:31:44.012Z,19.87
2019-06-15T05:32:19.667Z,20.27
2019-06-15T05:32:54.791Z,20.00
2019-06-15T05:33:30.575Z,21.12
2019-06-15T05:34:06.211Z,21.17
2019-06-15T05:34:41.275Z,21.42
2019-06-15T05:35:16.944Z,21.65
2019-06-15T05:35:52.910Z,23.47
2019-06-15T05:36:28.342Z,23.12
2019-06-15T05:37:05.406Z,22.40
2019-06-15T05:37:41.344Z,23.90
2019-06-15T05:38:16.413Z,23.42
2019-06-15T05:38:52.041Z,24.45
2019-06-15T05:39:27.686Z,24.57
2019-06-15T05:40:02.735Z,25.37
2019-06-15T05:40:38.751Z,25.17
2019-06-15T05:41:15.790Z,26.52
2019-06-15T05:41:50.973Z,26.48
2019-06-15T05:42:26.643Z,27.15
2019-06-15T05:43:02.327Z,28.35
2019-06-15T05:43:37.518Z,28.47
2019-06-15T05:44:13.227Z,29.00
2019-06-15T05:44:48.864Z,29.90
2019-06-15T05:45:23.927Z,30.30
2019-06-15T05:45:59.896Z,32.80
2019-06-15T05:46:35.947Z,32.88
2019-06-15T05:47:11.317Z,34.18
2019-06-15T05:47:48.338Z,33.75
2019-06-15T05:48:24.004Z,35.75
2019-06-15T05:48:59.439Z,36.65
2019-06-15T05:49:35.084Z,37.88
2019-06-15T05:50:10.783Z,38.28
2019-06-15T05:50:45.911Z,38.45
2019-06-15T05:51:21.593Z,35.78
2019-06-15T05:51:57.268Z,38.00
2019-06-15T05:52:32.974Z,36.48
2019-06-15T05:53:08.734Z,38.90
2019-06-15T05:53:44.408Z,39.63
2019-06-15T05:54:19.730Z,41.05
2019-06-15T05:54:55.390Z,39.20
2019-06-15T05:55:31.043Z,38.85
2019-06-15T05:56:06.100Z,39.53
2019-06-15T05:56:41.748Z,38.70
2019-06-15T05:57:21.702Z,39.05
2019-06-15T05:57:54.167Z,42.15
2019-06-15T05:58:30.173Z,39.98
2019-06-15T05:59:05.870Z,38.55
2019-06-15T05:59:40.946Z,41.65
2019-06-15T06:00:16.790Z,40.70
2019-06-15T06:00:52.420Z,40.17
2019-06-15T06:01:27.743Z,39.83
2019-06-15T06:02:03.716Z,40.40
2019-06-15T06:02:39.719Z,39.90
2019-06-15T06:03:14.826Z,36.88
2019-06-15T06:03:50.462Z,38.65
2019-06-15T06:04:26.785Z,39.90
2019-06-15T06:05:01.998Z,40.40
2019-06-15T06:05:38.239Z,39.78
2019-06-15T06:06:14.091Z,39.10
2019-06-15T06:06:49.485Z,38.33
2019-06-15T06:07:25.491Z,38.45
2019-06-15T06:08:01.636Z,36.08
2019-06-15T06:08:36.917Z,38.13
2019-06-15T06:09:12.708Z,37.88
2019-06-15T06:09:48.803Z,36.33
2019-06-15T06:10:24.029Z,35.68
2019-06-15T06:10:59.769Z,36.40
2019-06-15T06:11:36.426Z,35.25
2019-06-15T06:12:11.510Z,33.55
2019-06-15T06:12:47.462Z,35.43
2019-06-15T06:13:23.198Z,34.98
2019-06-15T06:13:58.319Z,30.80
2019-06-15T06:14:34.046Z,34.33
2019-06-15T06:15:09.781Z,33.30
2019-06-15T06:15:44.836Z,33.23
2019-06-15T06:16:20.463Z,33.38
2019-06-15T06:16:56.422Z,32.63
2019-06-15T06:17:31.556Z,33.28
2019-06-15T06:18:07.267Z,33.02
2019-06-15T06:18:42.914Z,33.98
2019-06-15T06:19:18.271Z,32.42
2019-06-15T06:19:53.899Z,29.75
2019-06-15T06:20:29.870Z,29.60
2019-06-15T06:21:04.967Z,31.48
2019-06-15T06:21:40.631Z,31.95
2019-06-15T06:22:16.619Z,30.75
2019-06-15T06:22:51.699Z,30.55
2019-06-15T06:23:27.371Z,32.30
2019-06-15T06:24:03.346Z,31.15
2019-06-15T06:24:38.425Z,30.65
2019-06-15T06:25:14.779Z,29.92
2019-06-15T06:25:50.441Z,31.35
2019-06-15T06:26:26.002Z,31.40
2019-06-15T06:27:01.706Z,30.80
2019-06-15T06:27:37.558Z,30.40
2019-06-15T06:28:12.887Z,31.02
2019-06-15T06:28:56.805Z,27.93
2019-06-15T06:29:26.224Z,30.62
2019-06-15T06:30:02.368Z,31.23
2019-06-15T06:30:38.312Z,31.97
2019-06-15T06:31:13.971Z,33.53
2019-06-15T06:31:49.280Z,32.53
2019-06-15T06:32:25.101Z,33.50
2019-06-15T06:33:00.750Z,31.02
2019-06-15T06:33:35.946Z,32.17
2019-06-15T06:34:11.674Z,32.13
2019-06-15T06:34:47.384Z,33.45
2019-06-15T06:35:22.461Z,33.25
2019-06-15T06:35:58.186Z,33.18
2019-06-15T06:36:33.886Z,33.38
2019-06-15T06:37:09.029Z,34.48
2019-06-15T06:37:44.773Z,33.53
2019-06-15T06:38:20.446Z,33.33
2019-06-15T06:38:55.780Z,33.23
2019-06-15T06:39:31.804Z,34.05
2019-06-15T06:40:08.816Z,34.33
2019-06-15T06:40:43.888Z,34.43
2019-06-15T06:41:19.525Z,34.33
2019-06-15T06:41:55.991Z,32.95
2019-06-15T06:42:31.314Z,34.03
2019-06-15T06:43:07.358Z,34.33
2019-06-15T06:43:43.012Z,34.85
2019-06-15T06:44:18.123Z,34.27
2019-06-15T06:44:53.813Z,36.98
2019-06-15T06:45:29.498Z,35.28
2019-06-15T06:46:04.730Z,34.80
2019-06-15T06:46:40.367Z,34.83
2019-06-15T06:47:16.018Z,35.40
2019-06-15T06:47:51.432Z,34.53
2019-06-15T06:48:27.101Z,35.17
2019-06-15T06:49:02.753Z,34.60
2019-06-15T06:49:38.242Z,35.98
2019-06-15T06:50:13.904Z,35.73
2019-06-15T06:50:49.564Z,34.67
2019-06-15T06:51:24.936Z,34.92
2019-06-15T06:52:00.604Z,35.03
2019-06-15T06:52:36.282Z,33.90
2019-06-15T06:53:11.639Z,33.80
2019-06-15T06:53:47.790Z,34.70
2019-06-15T06:54:23.422Z,34.83
2019-06-15T06:54:58.762Z,36.30
2019-06-15T06:55:34.452Z,35.68
2019-06-15T06:56:10.426Z,34.80
2019-06-15T06:56:45.495Z,36.00
2019-06-15T06:57:21.379Z,33.78
2019-06-15T06:57:57.422Z,33.05
2019-06-15T06:58:32.893Z,34.98
2019-06-15T06:59:08.543Z,34.33
2019-06-15T06:59:44.535Z,33.85
2019-06-15T07:00:20.086Z,32.90
2019-06-15T07:00:55.725Z,33.28
2019-06-15T07:01:31.386Z,31.95
2019-06-15T07:02:06.461Z,31.77
2019-06-15T07:02:42.111Z,32.78
2019-06-15T07:03:17.772Z,31.95
2019-06-15T07:03:53.335Z,33.40
2019-06-15T07:04:29.171Z,33.78
2019-06-15T07:05:05.051Z,32.35
2019-06-15T07:05:40.323Z,32.73
2019-06-15T07:06:15.961Z,32.70
2019-06-15T07:06:51.603Z,33.13
2019-06-15T07:07:26.732Z,31.55
2019-06-15T07:08:02.847Z,32.60
2019-06-15T07:08:38.825Z,32.40
2019-06-15T07:09:14.199Z,31.55
2019-06-15T07:09:49.838Z,31.57
2019-06-15T07:10:25.554Z,31.57
2019-06-15T07:11:00.603Z,30.62
2019-06-15T07:11:36.240Z,31.80
2019-06-15T07:12:11.867Z,28.60
2019-06-15T07:12:46.906Z,30.30
2019-06-15T07:13:22.537Z,28.65
2019-06-15T07:13:58.450Z,30.23
2019-06-15T07:14:33.736Z,30.25
2019-06-15T07:15:09.380Z,29.40
2019-06-15T07:15:45.118Z,28.98
2019-06-15T07:16:20.179Z,29.55
2019-06-15T07:16:56.145Z,29.05
2019-06-15T07:17:31.818Z,28.57
2019-06-15T07:18:06.862Z,29.50
2019-06-15T07:18:42.664Z,30.55
2019-06-15T07:19:18.586Z,30.45
2019-06-15T07:19:53.682Z,29.18
2019-06-15T07:20:29.644Z,29.50
2019-06-15T07:21:05.314Z,27.62
2019-06-15T07:21:40.371Z,29.05
2019-06-15T07:22:16.142Z,27.95
2019-06-15T07:22:51.791Z,29.00
2019-06-15T07:23:31.747Z,29.50
2019-06-15T07:24:05.898Z,28.73
2019-06-15T07:24:41.969Z,28.17
2019-06-15T07:25:17.052Z,28.62
2019-06-15T07:25:52.719Z,26.77
2019-06-15T07:26:28.644Z,27.22
2019-06-15T07:27:03.691Z,28.42
2019-06-15T07:27:39.366Z,28.65
2019-06-15T07:28:15.013Z,28.65
2019-06-15T07:28:50.051Z,29.25
2019-06-15T07:29:25.705Z,28.67
2019-06-15T07:30:01.339Z,27.98
2019-06-15T07:30:36.428Z,26.27
2019-06-15T07:31:12.115Z,27.35
2019-06-15T07:31:48.142Z,28.98
2019-06-15T07:32:23.273Z,27.42
2019-06-15T07:32:59.155Z,28.45
2019-06-15T07:33:34.836Z,28.07
2019-06-15T07:34:09.913Z,25.25
2019-06-15T07:34:45.544Z,28.80
2019-06-15T07:35:21.239Z,24.00
2019-06-15T07:35:56.634Z,27.15
2019-06-15T07:36:32.599Z,22.35
2019-06-15T07:37:08.635Z,25.48
2019-06-15T07:37:43.754Z,25.55
2019-06-15T07:38:19.435Z,23.47
2019-06-15T07:38:55.085Z,25.15
2019-06-15T07:39:30.407Z,26.17
2019-06-15T07:40:06.323Z,23.32
2019-06-15T07:40:42.080Z,23.00
2019-06-15T07:41:17.532Z,23.32
2019-06-15T07:41:53.547Z,23.30
2019-06-15T07:42:29.250Z,21.37
2019-06-15T07:43:04.326Z,23.10
2019-06-15T07:43:39.967Z,22.42
2019-06-15T07:44:15.634Z,22.30
2019-06-15T07:44:50.787Z,21.70